Startpagina
METAR-TAF:

METAR-TAF

Vliegvelden :

Luchthaven Oslo Gardermoen

Oslo, Noorwegen

breedte: 60-12N, lengte: 011-05E, hoogte: 208 m

Actueel weer

Dit bericht is 15 minuten geleden gemaakt, om 18:20 UTC
Wind 12 kt uit het zuidzuidwesten
Temperatuur 6°C
Vochtigheid 56%
Druk 980 hPa
Zicht 10 km of meer
geen wolken onder 1500 m en geen cumulonimbus

METAR: ENGM 171820Z 20012KT CAVOK 06/M02 Q0980 TEMPO 21015G25KT

Tijdstip: 19:35 (18:35 UTC)

Verwachting

Verwachting geldig van 17 om 18 UTC tot 18 om 18 UTC
Wind 8 kt uit het zuiden
Zicht 10 km of meer
Verspreide wolken op 4000 ft
Tijdelijke
van 17 om 18 UTC tot 17 om 21 UTC
Wind 15 kt uit het zuidzuidwesten met uitschieters tot 25 kt

TAF: ENGM 1718/1818 19008KT 9999 SCT040 TEMPO 1718/1721 20015G25KT

Waarnemingen en weersverwachtingen van meer dan 4000 vliegvelden (METAR en TAF).

De beschikbare stations zijn de gele en rode punten op de kaart.

Ga met uw muis naar het station om de naam te zien.

Klik dan om waarnemingen en weersverwachtingen te zien.

kaart wijzigen: klik op de groene knoppen met een zwart kruis om in te zoomen, op de groene knop met een streepje om uit te zoomen of op de groene pijlen voor aangrenzende kaarten.


METAR-TAF: